Time;durP1;ratioP1;P1;durP2;ratioP2;P2;SDS_P1;SDS_P2;PMS_P1;PMS_P2;Temp;Humidity;BMP_temperature;BMP_pressure;BME280_temperature;BME280_humidity;BME280_pressure;Samples;Min_cycle;Max_cycle;Signal;HPM_P1;HPM_P2
2021/01/20 00:01:21;;;;;;;3.70;2.10;;;2.60;99.90;;;;;;5068765;28;20211;-72
2021/01/20 00:03:47;;;;;;;2.05;1.85;;;2.60;99.90;;;;;;5055827;28;20212;-71
2021/01/20 00:06:14;;;;;;;3.03;1.90;;;2.60;99.90;;;;;;5048766;28;20225;-71
2021/01/20 00:08:41;;;;;;;2.28;1.92;;;2.70;99.90;;;;;;5049790;28;20201;-71
2021/01/20 00:11:07;;;;;;;2.05;1.70;;;2.70;99.90;;;;;;5049729;28;20277;-71
2021/01/20 00:13:33;;;;;;;2.35;2.15;;;2.70;99.90;;;;;;5049001;28;20257;-71
2021/01/20 00:16:00;;;;;;;2.45;1.77;;;2.70;99.90;;;;;;5047614;28;20286;-71
2021/01/20 00:18:26;;;;;;;1.95;1.75;;;2.70;99.90;;;;;;5048600;28;20197;-72
2021/01/20 00:20:52;;;;;;;2.63;2.22;;;2.70;99.90;;;;;;5050117;28;20201;-72
2021/01/20 00:23:19;;;;;;;2.80;1.90;;;2.70;99.90;;;;;;5048972;28;20201;-72
2021/01/20 00:25:45;;;;;;;4.10;2.40;;;2.70;99.90;;;;;;5049268;28;20589;-71
2021/01/20 00:28:12;;;;;;;2.25;2.05;;;2.60;99.90;;;;;;5049318;28;20201;-71
2021/01/20 00:30:38;;;;;;;2.80;2.10;;;2.60;99.90;;;;;;5048746;28;20205;-72
2021/01/20 00:33:04;;;;;;;1.75;1.60;;;2.50;99.90;;;;;;5048114;28;20209;-72
2021/01/20 00:35:31;;;;;;;2.20;1.85;;;2.40;99.90;;;;;;5048607;28;20229;-72
2021/01/20 00:37:57;;;;;;;2.70;2.17;;;2.30;99.90;;;;;;5050110;28;20205;-72
2021/01/20 00:40:24;;;;;;;2.88;1.95;;;2.20;99.90;;;;;;5048265;28;20205;-71
2021/01/20 00:42:50;;;;;;;1.83;1.70;;;2.10;99.90;;;;;;5048325;28;20213;-71
2021/01/20 00:45:16;;;;;;;1.90;1.58;;;2.10;99.90;;;;;;5115651;23;20228;-73
2021/01/20 00:47:43;;;;;;;2.13;1.92;;;2.10;99.90;;;;;;5068577;28;20193;-74
2021/01/20 00:50:10;;;;;;;2.60;2.15;;;2.10;99.90;;;;;;5069909;28;20200;-73
2021/01/20 00:52:36;;;;;;;3.20;1.90;;;2.10;99.90;;;;;;5068755;28;20234;-73
2021/01/20 00:55:03;;;;;;;2.00;1.80;;;2.10;99.90;;;;;;5069753;28;20235;-73
2021/01/20 00:57:30;;;;;;;2.20;2.00;;;2.00;99.90;;;;;;5068707;28;20732;-74
2021/01/20 00:59:56;;;;;;;2.60;2.05;;;2.00;99.90;;;;;;5069463;28;20876;-73
2021/01/20 01:02:22;;;;;;;2.08;1.88;;;2.10;99.90;;;;;;5068639;28;20205;-74
2021/01/20 01:04:48;;;;;;;2.78;1.90;;;2.10;99.90;;;;;;5069637;28;20700;-73
2021/01/20 01:07:14;;;;;;;1.60;1.50;;;2.10;99.90;;;;;;5069545;28;20212;-73
2021/01/20 01:09:41;;;;;;;2.08;1.88;;;2.10;99.90;;;;;;5069631;28;20208;-75
2021/01/20 01:12:07;;;;;;;1.92;1.70;;;2.20;99.90;;;;;;5069200;28;20211;-73
2021/01/20 01:14:35;;;;;;;3.08;1.90;;;2.20;99.90;;;;;;5068522;28;20692;-72
2021/01/20 01:17:01;;;;;;;2.08;1.88;;;2.20;99.90;;;;;;5069630;28;20201;-72
2021/01/20 01:19:27;;;;;;;2.22;1.95;;;2.20;99.90;;;;;;5068834;28;20318;-73
2021/01/20 01:21:53;;;;;;;1.92;1.75;;;2.30;99.90;;;;;;5068111;28;20196;-72
2021/01/20 01:24:19;;;;;;;3.30;2.25;;;2.20;99.90;;;;;;5069231;28;20225;-75
2021/01/20 01:26:46;;;;;;;2.42;1.70;;;2.20;99.90;;;;;;5069052;28;20258;-76
2021/01/20 01:29:12;;;;;;;2.03;1.65;;;2.30;99.90;;;;;;5069360;28;20675;-74
2021/01/20 01:31:39;;;;;;;2.10;1.60;;;2.30;99.90;;;;;;5068245;28;20204;-75
2021/01/20 01:34:05;;;;;;;2.00;1.80;;;2.40;99.90;;;;;;5069002;28;20682;-73
2021/01/20 01:36:31;;;;;;;2.60;2.22;;;2.40;99.90;;;;;;5068821;28;20308;-75
2021/01/20 01:38:57;;;;;;;2.25;1.75;;;2.40;99.90;;;;;;5068919;28;20212;-75
2021/01/20 01:41:23;;;;;;;1.80;1.70;;;2.40;99.90;;;;;;5069017;28;20561;-74
2021/01/20 01:43:50;;;;;;;2.22;2.03;;;2.40;99.90;;;;;;5067425;28;20207;-74
2021/01/20 01:46:16;;;;;;;2.58;2.05;;;2.30;99.90;;;;;;5067341;28;20844;-75
2021/01/20 01:48:43;;;;;;;2.20;1.88;;;2.30;99.90;;;;;;5069117;28;20200;-75
2021/01/20 01:51:09;;;;;;;1.90;1.58;;;2.30;99.90;;;;;;5069913;28;20200;-75
2021/01/20 01:53:36;;;;;;;2.28;1.70;;;2.20;99.90;;;;;;5069103;28;20204;-74
2021/01/20 01:56:02;;;;;;;2.28;1.70;;;2.20;99.90;;;;;;5074573;28;20243;-76
2021/01/20 01:58:28;;;;;;;1.90;1.70;;;2.30;99.90;;;;;;5079661;28;20209;-75
2021/01/20 02:00:55;;;;;;;1.50;1.40;;;2.30;99.90;;;;;;5078934;28;20274;-74
2021/01/20 02:03:21;;;;;;;1.90;1.70;;;2.30;99.90;;;;;;5070928;28;20204;-75
2021/01/20 02:05:48;;;;;;;2.28;1.65;;;2.20;99.90;;;;;;5068986;28;20225;-75
2021/01/20 02:08:15;;;;;;;2.22;1.60;;;2.30;99.90;;;;;;5068887;28;20258;-75
2021/01/20 02:10:41;;;;;;;1.95;1.75;;;2.30;99.90;;;;;;5068162;28;20661;-74
2021/01/20 02:13:25;;;;;;;1.90;1.70;;;2.30;99.90;;;;;;5069632;28;20219;-74
2021/01/20 02:15:58;;;;;;;2.38;2.17;;;2.30;99.90;;;;;;5068869;28;20224;-75
2021/01/20 02:18:28;;;;;;;2.33;1.85;;;2.30;99.90;;;;;;5068301;28;20200;-75
2021/01/20 02:21:53;;;;;;;1.88;1.50;;;2.30;99.90;;;;;;5068380;28;20610;-76
2021/01/20 02:24:26;;;;;;;1.65;1.48;;;2.40;99.90;;;;;;5068460;28;20228;-75
2021/01/20 02:27:00;;;;;;;2.05;1.80;;;2.50;99.90;;;;;;5068696;28;20215;-76
2021/01/20 02:29:35;;;;;;;2.15;1.40;;;2.60;99.90;;;;;;5068298;28;20201;-75
2021/01/20 02:32:05;;;;;;;2.58;1.90;;;2.70;99.90;;;;;;5068071;28;20200;-75
2021/01/20 02:34:33;;;;;;;1.70;1.60;;;2.80;99.90;;;;;;5067687;28;20270;-75
2021/01/20 02:37:01;;;;;;;1.60;1.40;;;2.90;99.90;;;;;;5068730;28;20626;-74
2021/01/20 02:39:28;;;;;;;2.08;1.70;;;2.90;99.90;;;;;;5069165;28;20204;-74
2021/01/20 02:42:02;;;;;;;1.58;1.48;;;3.00;99.90;;;;;;5072164;28;20253;-74
2021/01/20 02:44:28;;;;;;;2.72;1.63;;;2.90;99.90;;;;;;5072187;28;20314;-74
2021/01/20 02:46:55;;;;;;;2.55;1.83;;;3.00;99.90;;;;;;5072206;28;20726;-74
2021/01/20 02:49:22;;;;;;;2.08;1.75;;;3.00;99.90;;;;;;5072335;28;20200;-76
2021/01/20 02:51:52;;;;;;;3.30;1.90;;;3.00;99.90;;;;;;5071839;28;20204;-76
2021/01/20 02:54:21;;;;;;;1.70;1.58;;;3.00;99.90;;;;;;5072262;28;20711;-74
2021/01/20 02:56:49;;;;;;;2.05;1.50;;;3.10;99.90;;;;;;5072029;28;20872;-74
2021/01/20 02:59:17;;;;;;;2.75;1.80;;;3.10;99.90;;;;;;5072038;28;20204;-74
2021/01/20 03:01:49;;;;;;;1.88;1.65;;;3.00;99.90;;;;;;5071194;28;20676;-74
2021/01/20 03:04:17;;;;;;;1.60;1.30;;;3.00;99.90;;;;;;5072149;28;20342;-74
2021/01/20 03:06:46;;;;;;;2.08;1.42;;;3.00;99.90;;;;;;5071996;28;20204;-75
2021/01/20 03:09:13;;;;;;;1.77;1.67;;;3.00;99.90;;;;;;5072264;28;20318;-74
2021/01/20 03:11:45;;;;;;;2.88;2.00;;;3.00;99.90;;;;;;5071052;28;20242;-74
2021/01/20 03:14:12;;;;;;;1.75;1.50;;;3.00;99.90;;;;;;5072384;28;20253;-74
2021/01/20 03:16:38;;;;;;;1.75;1.55;;;3.00;99.90;;;;;;5072059;28;20224;-75
2021/01/20 03:19:04;;;;;;;1.70;1.60;;;2.90;99.90;;;;;;5072333;28;20222;-75
2021/01/20 03:21:31;;;;;;;1.75;1.60;;;2.80;99.90;;;;;;5071825;28;20208;-74
2021/01/20 03:23:58;;;;;;;1.70;1.58;;;2.80;99.90;;;;;;5071435;28;20197;-74
2021/01/20 03:26:24;;;;;;;1.60;1.50;;;2.60;99.90;;;;;;5072515;28;20242;-76
2021/01/20 03:28:50;;;;;;;2.25;1.83;;;2.50;99.90;;;;;;5072661;28;20366;-75
2021/01/20 03:31:16;;;;;;;2.25;2.05;;;2.50;99.90;;;;;;5072716;28;20200;-74
2021/01/20 03:33:43;;;;;;;4.53;1.70;;;2.40;99.90;;;;;;5070665;28;20223;-73
2021/01/20 03:36:09;;;;;;;2.85;2.10;;;2.40;99.90;;;;;;5071835;28;20231;-75
2021/01/20 03:38:35;;;;;;;2.33;1.95;;;2.30;99.90;;;;;;5070596;28;20204;-74
2021/01/20 03:41:03;;;;;;;1.77;1.67;;;2.30;99.90;;;;;;5071611;28;20201;-74
2021/01/20 03:43:29;;;;;;;2.45;1.73;;;2.20;99.90;;;;;;5070386;28;20683;-75
2021/01/20 03:45:56;;;;;;;2.53;1.90;;;2.10;99.90;;;;;;5071310;28;20229;-73
2021/01/20 03:48:22;;;;;;;2.72;1.90;;;2.10;99.90;;;;;;5071093;28;20212;-73
2021/01/20 03:50:48;;;;;;;3.53;2.10;;;2.10;99.90;;;;;;5070929;28;20683;-73
2021/01/20 03:53:15;;;;;;;3.15;2.42;;;2.10;99.90;;;;;;5070834;28;20576;-74
2021/01/20 03:55:41;;;;;;;5.10;2.38;;;2.10;99.90;;;;;;5070759;28;20236;-74
2021/01/20 03:58:08;;;;;;;2.70;2.13;;;2.00;99.90;;;;;;5071547;28;20205;-73
2021/01/20 04:00:34;;;;;;;2.55;2.35;;;2.00;99.90;;;;;;5070640;28;20215;-76
2021/01/20 04:03:00;;;;;;;2.30;2.10;;;2.00;99.90;;;;;;5070658;28;20200;-73
2021/01/20 04:05:26;;;;;;;2.38;1.65;;;2.00;99.90;;;;;;5071033;28;20631;-74
2021/01/20 04:07:53;;;;;;;2.60;2.03;;;2.00;99.90;;;;;;5071103;28;20216;-75
2021/01/20 04:10:19;;;;;;;2.85;2.03;;;2.00;99.90;;;;;;5071259;28;20245;-76
2021/01/20 04:12:45;;;;;;;2.30;2.00;;;2.10;99.90;;;;;;5069657;28;20227;-75
2021/01/20 04:15:12;;;;;;;3.42;2.10;;;2.10;99.90;;;;;;5070829;28;20220;-74
2021/01/20 04:17:39;;;;;;;1.85;1.70;;;2.00;99.90;;;;;;5070691;28;20204;-74
2021/01/20 04:20:06;;;;;;;2.95;1.92;;;2.00;99.90;;;;;;5070974;28;20339;-74
2021/01/20 04:22:33;;;;;;;2.38;1.80;;;2.00;99.90;;;;;;5070201;28;20204;-75
2021/01/20 04:24:59;;;;;;;2.05;1.50;;;2.10;99.90;;;;;;5070517;28;20719;-74
2021/01/20 04:27:25;;;;;;;2.40;1.80;;;2.00;99.90;;;;;;5070643;28;20227;-76
2021/01/20 04:29:51;;;;;;;1.70;1.60;;;2.00;99.90;;;;;;5070385;28;20209;-74
2021/01/20 04:32:19;;;;;;;2.10;1.85;;;2.10;99.90;;;;;;5070073;28;20205;-75
2021/01/20 04:34:45;;;;;;;2.45;1.80;;;2.10;99.90;;;;;;5069825;28;20232;-75
2021/01/20 04:37:11;;;;;;;2.00;1.80;;;2.10;99.90;;;;;;5069380;28;20676;-74
2021/01/20 04:39:37;;;;;;;1.95;1.40;;;2.20;99.90;;;;;;5069427;28;20599;-75
2021/01/20 04:42:05;;;;;;;2.00;1.80;;;2.30;99.90;;;;;;5069981;28;20209;-75
2021/01/20 04:44:31;;;;;;;2.67;1.50;;;2.40;99.90;;;;;;5069918;28;20216;-76
2021/01/20 04:47:00;;;;;;;1.60;1.50;;;2.40;99.90;;;;;;5070574;28;20207;-76
2021/01/20 04:49:27;;;;;;;1.75;1.45;;;2.50;99.90;;;;;;5070113;28;20266;-74
2021/01/20 04:51:55;;;;;;;2.95;1.83;;;2.50;99.90;;;;;;5070116;28;20208;-76
2021/01/20 04:54:22;;;;;;;3.08;1.52;;;2.70;99.90;;;;;;5068125;28;20223;-74
2021/01/20 04:56:50;;;;;;;1.60;1.50;;;2.80;99.90;;;;;;5069319;28;20228;-73
2021/01/20 04:59:16;;;;;;;2.67;1.80;;;3.00;99.90;;;;;;5069565;28;20215;-77
2021/01/20 05:01:43;;;;;;;2.10;1.90;;;3.10;99.90;;;;;;5066139;28;20211;-75
2021/01/20 05:04:11;;;;;;;1.58;1.48;;;3.20;99.90;;;;;;5068402;28;20266;-74
2021/01/20 05:06:38;;;;;;;1.77;1.67;;;3.20;99.90;;;;;;5067610;28;20196;-75
2021/01/20 05:09:04;;;;;;;2.55;1.60;;;3.30;99.90;;;;;;5068974;28;20201;-74
2021/01/20 05:11:40;;;;;;;1.80;1.67;;;3.40;99.90;;;;;;5069068;28;20393;-75
2021/01/20 05:14:10;;;;;;;1.88;1.65;;;3.40;99.90;;;;;;5068755;28;20235;-74
2021/01/20 05:16:37;;;;;;;1.55;1.40;;;3.30;99.90;;;;;;5069042;28;20223;-74
2021/01/20 05:19:03;;;;;;;1.45;1.30;;;3.30;99.90;;;;;;5069408;28;20204;-72
2021/01/20 05:21:30;;;;;;;1.98;1.70;;;3.20;99.90;;;;;;5068854;28;20204;-74
2021/01/20 05:24:18;;;;;;;1.60;1.50;;;3.20;99.90;;;;;;5068786;28;20566;-72
2021/01/20 05:26:44;;;;;;;2.00;1.50;;;3.20;99.90;;;;;;5068185;28;20220;-72
2021/01/20 05:29:11;;;;;;;1.73;1.45;;;3.20;99.90;;;;;;5068575;28;20201;-72
2021/01/20 05:31:37;;;;;;;2.35;2.08;;;3.30;99.90;;;;;;5068412;28;20274;-72
2021/01/20 05:34:03;;;;;;;1.88;1.70;;;3.30;99.90;;;;;;5069006;28;20208;-72
2021/01/20 05:36:29;;;;;;;3.22;1.95;;;3.30;99.90;;;;;;5069035;28;20227;-72
2021/01/20 05:38:55;;;;;;;1.88;1.58;;;3.30;99.90;;;;;;5068415;28;20215;-73
2021/01/20 05:41:24;;;;;;;2.28;1.85;;;3.30;99.90;;;;;;5069144;28;20200;-71
2021/01/20 05:43:52;;;;;;;2.00;1.80;;;3.30;99.90;;;;;;5068224;28;20211;-72
2021/01/20 05:46:29;;;;;;;3.88;1.90;;;3.30;99.90;;;;;;5070030;28;20200;-71
2021/01/20 05:48:55;;;;;;;3.13;2.40;;;3.30;99.90;;;;;;5069134;28;20208;-72
2021/01/20 05:51:22;;;;;;;2.38;2.03;;;3.30;99.90;;;;;;5068522;28;20587;-73
2021/01/20 05:53:52;;;;;;;1.80;1.70;;;3.30;99.90;;;;;;5068263;28;20205;-71
2021/01/20 05:56:26;;;;;;;4.93;1.90;;;3.30;99.90;;;;;;5068933;28;20216;-71
2021/01/20 05:58:52;;;;;;;2.60;1.85;;;3.30;99.90;;;;;;5068493;28;20620;-74
2021/01/20 06:01:19;;;;;;;3.15;2.30;;;3.40;99.90;;;;;;5068478;28;20250;-74
2021/01/20 06:03:45;;;;;;;2.20;2.00;;;3.40;99.90;;;;;;5067376;28;20619;-73
2021/01/20 06:06:13;;;;;;;3.55;2.28;;;3.40;99.90;;;;;;5068823;28;20217;-73
2021/01/20 06:08:39;;;;;;;4.53;2.10;;;3.40;99.90;;;;;;5067573;28;20196;-72
2021/01/20 06:11:06;;;;;;;1.80;1.70;;;3.40;99.90;;;;;;5068428;28;20204;-72
2021/01/20 06:13:34;;;;;;;1.70;1.48;;;3.40;99.90;;;;;;5066651;28;20196;-72
2021/01/20 06:16:11;;;;;;;2.08;1.80;;;3.40;99.90;;;;;;5067410;28;21091;-72
2021/01/20 06:18:38;;;;;;;2.45;1.85;;;3.30;99.90;;;;;;5068036;28;20780;-73
2021/01/20 06:21:05;;;;;;;2.75;1.90;;;3.30;99.90;;;;;;5070776;28;20204;-72
2021/01/20 06:23:34;;;;;;;2.05;1.70;;;3.30;99.90;;;;;;5062675;28;20189;-71
2021/01/20 06:26:08;;;;;;;2.60;2.22;;;3.30;99.90;;;;;;5048264;28;20638;-72
2021/01/20 06:28:38;;;;;;;2.63;1.85;;;3.30;99.90;;;;;;5047586;28;20204;-73
2021/01/20 06:31:07;;;;;;;2.70;1.92;;;3.30;99.90;;;;;;5048383;28;20614;-73
2021/01/20 06:33:34;;;;;;;2.20;1.67;;;3.30;99.90;;;;;;5053534;28;20204;-72
2021/01/20 06:36:00;;;;;;;2.10;1.90;;;3.40;99.90;;;;;;5068178;28;20223;-73
2021/01/20 06:38:33;;;;;;;1.60;1.50;;;3.40;99.90;;;;;;5068339;28;20639;-73
2021/01/20 06:41:01;;;;;;;2.30;2.03;;;3.40;99.90;;;;;;5068562;28;20640;-72
2021/01/20 06:43:42;;;;;;;2.55;1.80;;;3.40;99.90;;;;;;5068361;28;20208;-73
2021/01/20 06:46:27;;;;;;;2.13;1.80;;;3.30;99.90;;;;;;5071172;28;20254;-71
2021/01/20 06:49:12;;;;;;;2.60;1.90;;;3.30;99.90;;;;;;5075341;28;20208;-74
2021/01/20 06:54:35;;;;;;;1.88;1.75;;;3.20;99.90;;;;;;5068504;28;20232;-94
2021/01/20 06:57:09;;;;;;;2.17;1.70;;;3.20;99.90;;;;;;5094536;28;20212;-94
2021/01/20 06:59:36;;;;;;;2.40;1.77;;;3.20;99.90;;;;;;5081930;28;20274;-94
2021/01/20 07:02:33;;;;;;;3.15;1.80;;;3.20;99.90;;;;;;5102450;28;20263;-95
2021/01/20 07:05:48;;;;;;;3.10;2.35;;;3.10;99.90;;;;;;5051176;28;21666;-95
2021/01/20 07:08:16;;;;;;;2.17;1.83;;;3.10;99.90;;;;;;5089895;28;20220;-95
2021/01/20 07:19:51;;;;;;;3.88;2.22;;;2.90;99.90;;;;;;5080570;22;20230;-71
2021/01/20 07:22:18;;;;;;;3.05;1.90;;;2.90;99.90;;;;;;5027151;28;20205;-71
2021/01/20 07:24:44;;;;;;;3.45;2.65;;;2.80;99.90;;;;;;5027615;28;20225;-71
2021/01/20 07:27:12;;;;;;;2.40;1.98;;;2.80;99.90;;;;;;5031680;28;20197;-71
2021/01/20 07:29:39;;;;;;;2.75;2.55;;;2.60;99.90;;;;;;5031163;28;20212;-71
2021/01/20 07:32:07;;;;;;;3.28;2.30;;;2.70;99.90;;;;;;5030769;28;20201;-71
2021/01/20 07:34:38;;;;;;;12.15;4.15;;;2.70;99.90;;;;;;5030914;28;20721;-71
2021/01/20 07:37:08;;;;;;;2.28;2.05;;;2.70;99.90;;;;;;5031432;28;20275;-71
2021/01/20 07:39:34;;;;;;;3.72;2.13;;;2.60;99.90;;;;;;5031515;28;20197;-70
2021/01/20 07:42:01;;;;;;;3.00;2.35;;;2.50;99.90;;;;;;5031623;28;20197;-70
2021/01/20 07:44:28;;;;;;;3.95;1.95;;;2.60;99.90;;;;;;5031114;28;20258;-71
2021/01/20 07:46:58;;;;;;;2.47;2.28;;;2.60;99.90;;;;;;5031571;28;20202;-71
2021/01/20 07:49:25;;;;;;;5.63;2.40;;;2.60;99.90;;;;;;5031855;28;20222;-70
2021/01/20 07:52:02;;;;;;;2.80;2.20;;;2.60;99.90;;;;;;5031048;28;20205;-71
2021/01/20 07:54:37;;;;;;;3.70;2.28;;;2.60;99.90;;;;;;5031199;28;20268;-71
2021/01/20 07:57:04;;;;;;;2.53;2.33;;;2.70;99.90;;;;;;5011522;28;20226;-71
2021/01/20 07:59:32;;;;;;;3.35;2.25;;;2.80;99.90;;;;;;5011886;28;20234;-71
2021/01/20 08:02:08;;;;;;;2.95;2.35;;;2.80;99.90;;;;;;5011369;28;20206;-70
2021/01/20 08:04:35;;;;;;;3.15;2.55;;;2.80;99.90;;;;;;5025464;28;20221;-71
2021/01/20 08:07:01;;;;;;;2.55;2.00;;;2.90;99.90;;;;;;5030743;28;20201;-71
2021/01/20 08:09:37;;;;;;;2.47;2.05;;;2.90;99.90;;;;;;5031536;28;20205;-71
2021/01/20 08:12:06;;;;;;;2.78;2.40;;;3.00;99.90;;;;;;5030269;28;20259;-71
2021/01/20 08:14:33;;;;;;;2.60;2.20;;;3.10;99.90;;;;;;5030464;28;20225;-71
2021/01/20 08:17:00;;;;;;;3.28;2.60;;;3.10;99.90;;;;;;5031099;28;20438;-71
2021/01/20 08:19:26;;;;;;;2.58;1.95;;;3.20;99.90;;;;;;5030847;28;20228;-71
2021/01/20 08:21:54;;;;;;;3.17;2.30;;;3.20;99.90;;;;;;5030456;28;20677;-71
2021/01/20 08:24:21;;;;;;;4.20;2.63;;;3.20;99.90;;;;;;5030542;28;20299;-71
2021/01/20 08:26:53;;;;;;;7.63;2.05;;;3.20;99.90;;;;;;5030494;28;20205;-71
2021/01/20 08:29:21;;;;;;;3.10;2.78;;;3.30;99.90;;;;;;5030890;28;20213;-71
2021/01/20 08:32:05;;;;;;;3.63;3.10;;;3.30;99.90;;;;;;5029142;28;20202;-70
2021/01/20 08:34:35;;;;;;;5.93;2.75;;;3.40;99.90;;;;;;5034246;28;20248;-71
2021/01/20 08:37:04;;;;;;;5.07;3.65;;;3.50;99.90;;;;;;5029284;28;20713;-71
2021/01/20 08:39:31;;;;;;;3.70;3.10;;;3.50;99.90;;;;;;5028897;28;20209;-71
2021/01/20 08:42:17;;;;;;;3.80;3.40;;;3.50;99.90;;;;;;5029641;28;20201;-71
2021/01/20 08:45:03;;;;;;;3.30;2.90;;;3.50;99.90;;;;;;5029001;28;20286;-71
2021/01/20 08:47:30;;;;;;;10.15;3.20;;;3.60;99.90;;;;;;5030775;28;20248;-71
2021/01/20 08:49:56;;;;;;;2.92;2.63;;;3.60;99.90;;;;;;5030098;28;20206;-71
2021/01/20 08:52:23;;;;;;;2.60;2.28;;;3.70;99.90;;;;;;5030208;28;20213;-71
2021/01/20 08:54:50;;;;;;;4.15;1.90;;;3.80;99.90;;;;;;5029549;28;20225;-71
2021/01/20 08:57:18;;;;;;;2.20;1.88;;;3.90;99.90;;;;;;5029007;28;20225;-71
2021/01/20 08:59:52;;;;;;;3.20;1.90;;;4.00;99.90;;;;;;5029678;28;20576;-71
2021/01/20 09:02:18;;;;;;;4.90;2.65;;;4.10;99.90;;;;;;5029864;28;20685;-71
2021/01/20 09:04:47;;;;;;;3.67;2.05;;;4.10;99.90;;;;;;5029702;28;20229;-71
2021/01/20 09:07:13;;;;;;;2.17;1.60;;;4.10;99.90;;;;;;5030143;28;20727;-71
2021/01/20 09:09:41;;;;;;;1.85;1.70;;;4.20;99.90;;;;;;5029555;28;20277;-71
2021/01/20 09:12:07;;;;;;;2.33;1.90;;;4.20;99.90;;;;;;5029384;28;20621;-71
2021/01/20 09:14:34;;;;;;;3.00;1.92;;;4.30;99.90;;;;;;5030381;28;20584;-71
2021/01/20 09:17:00;;;;;;;2.20;1.90;;;4.40;99.90;;;;;;5029842;28;20221;-71
2021/01/20 09:19:27;;;;;;;3.40;1.95;;;4.40;99.90;;;;;;5029883;28;20686;-71
2021/01/20 09:21:53;;;;;;;2.72;2.30;;;4.40;99.90;;;;;;5028571;28;20205;-71
2021/01/20 09:24:20;;;;;;;2.00;1.70;;;4.50;99.90;;;;;;5029879;28;20221;-71
2021/01/20 09:26:47;;;;;;;1.50;1.40;;;4.50;99.90;;;;;;5028704;28;20204;-71
2021/01/20 09:29:13;;;;;;;2.38;2.00;;;4.50;99.90;;;;;;5029588;28;20666;-71
2021/01/20 09:31:40;;;;;;;2.65;2.05;;;4.50;99.90;;;;;;5029075;28;20739;-71
2021/01/20 09:34:07;;;;;;;6.35;2.20;;;4.60;99.90;;;;;;5028881;28;20213;-71
2021/01/20 09:36:34;;;;;;;3.17;1.60;;;4.60;99.90;;;;;;5029622;28;20222;-71
2021/01/20 09:39:00;;;;;;;3.08;2.00;;;4.70;99.90;;;;;;5029372;28;21109;-71
2021/01/20 09:41:26;;;;;;;2.10;1.98;;;4.70;99.90;;;;;;5029458;28;20206;-71
2021/01/20 09:43:53;;;;;;;2.88;1.98;;;4.70;99.90;;;;;;5024383;28;20678;-71
2021/01/20 09:46:20;;;;;;;2.03;1.83;;;4.80;99.90;;;;;;5029153;28;20198;-71
2021/01/20 09:48:46;;;;;;;3.20;2.90;;;4.70;99.90;;;;;;5028315;28;20217;-71
2021/01/20 09:51:12;;;;;;;3.45;2.00;;;4.80;99.90;;;;;;5029397;28;20201;-71
2021/01/20 09:53:39;;;;;;;3.47;2.08;;;4.80;99.90;;;;;;5028624;28;20220;-71
2021/01/20 09:56:06;;;;;;;3.75;2.25;;;4.80;99.90;;;;;;5028871;28;20222;-71
2021/01/20 09:58:37;;;;;;;4.55;2.70;;;4.90;99.90;;;;;;5028372;28;20221;-71
2021/01/20 10:01:04;;;;;;;3.13;2.30;;;4.90;99.90;;;;;;5028907;28;20202;-71
2021/01/20 10:03:30;;;;;;;3.15;2.35;;;5.00;99.90;;;;;;5028670;28;20197;-71
2021/01/20 10:05:56;;;;;;;2.60;2.00;;;5.00;99.90;;;;;;5028929;28;20218;-71
2021/01/20 10:08:23;;;;;;;3.92;2.60;;;5.00;99.90;;;;;;5029319;28;20206;-71
2021/01/20 10:10:49;;;;;;;2.25;2.05;;;5.10;99.90;;;;;;5027730;28;20205;-71
2021/01/20 10:13:15;;;;;;;2.60;2.20;;;5.10;99.90;;;;;;5028526;28;20201;-71
2021/01/20 10:15:41;;;;;;;2.55;2.25;;;5.20;99.90;;;;;;5028528;28;20222;-71
2021/01/20 10:18:09;;;;;;;2.92;2.70;;;5.30;99.90;;;;;;5029102;28;20201;-71
2021/01/20 10:20:35;;;;;;;3.10;2.70;;;5.40;99.90;;;;;;5028596;28;20214;-71
2021/01/20 10:23:01;;;;;;;2.55;2.30;;;5.50;99.90;;;;;;5026684;28;20586;-69
2021/01/20 10:25:32;;;;;;;2.92;2.55;;;5.50;99.90;;;;;;5028484;28;20225;-69
2021/01/20 10:27:59;;;;;;;2.40;2.20;;;5.60;99.90;;;;;;5031178;28;20205;-69
2021/01/20 10:30:26;;;;;;;3.13;2.60;;;5.70;99.90;;;;;;5028438;28;20675;-69
2021/01/20 10:32:54;;;;;;;3.47;2.65;;;5.90;99.90;;;;;;5027294;28;20708;-70
2021/01/20 10:35:21;;;;;;;2.67;2.47;;;6.00;99.90;;;;;;5028184;28;20221;-70
2021/01/20 10:37:48;;;;;;;4.40;2.45;;;6.10;99.90;;;;;;5028236;28;20248;-70
2021/01/20 10:40:15;;;;;;;4.82;2.67;;;6.00;99.90;;;;;;5028429;28;20209;-69
2021/01/20 10:42:42;;;;;;;4.30;2.80;;;6.10;99.90;;;;;;5027862;28;20561;-70
2021/01/20 10:45:09;;;;;;;3.90;2.53;;;6.10;99.90;;;;;;5029553;28;20225;-71
2021/01/20 10:47:35;;;;;;;3.25;2.45;;;6.20;99.90;;;;;;5028190;28;20531;-70
2021/01/20 10:50:03;;;;;;;4.47;2.75;;;6.20;99.90;;;;;;5028025;28;20206;-70
2021/01/20 10:52:31;;;;;;;3.72;2.75;;;6.40;99.90;;;;;;5027962;28;20669;-70
2021/01/20 10:54:57;;;;;;;3.08;2.70;;;6.60;99.90;;;;;;5027533;28;20225;-70
2021/01/20 10:57:23;;;;;;;2.70;2.30;;;6.80;99.90;;;;;;5028510;28;20244;-70
2021/01/20 10:59:49;;;;;;;2.80;2.53;;;6.90;99.90;;;;;;5027687;28;20201;-70
2021/01/20 11:02:15;;;;;;;3.00;2.70;;;7.00;99.90;;;;;;5032934;28;20553;-70
2021/01/20 11:04:42;;;;;;;3.38;3.03;;;6.90;99.90;;;;;;5031824;28;20434;-70
2021/01/20 11:07:09;;;;;;;2.50;2.30;;;6.70;99.90;;;;;;5032232;28;20197;-70
2021/01/20 11:09:36;;;;;;;6.03;3.00;;;6.70;99.90;;;;;;5031873;28;20208;-70
2021/01/20 11:12:03;;;;;;;3.55;3.15;;;6.70;99.90;;;;;;5031731;28;20420;-70
2021/01/20 11:14:30;;;;;;;3.35;3.05;;;6.50;99.90;;;;;;5031424;28;20225;-70
2021/01/20 11:16:57;;;;;;;5.93;3.10;;;6.40;99.90;;;;;;5031875;28;20229;-70
2021/01/20 11:19:23;;;;;;;3.03;2.75;;;6.40;99.90;;;;;;5032535;28;20669;-70
2021/01/20 11:21:49;;;;;;;3.95;2.80;;;6.30;99.90;;;;;;5031214;28;20202;-70
2021/01/20 11:24:18;;;;;;;2.58;2.38;;;6.30;99.90;;;;;;5032043;28;20224;-70
2021/01/20 11:26:45;;;;;;;3.22;2.78;;;6.30;99.90;;;;;;5031150;28;20289;-70
2021/01/20 11:29:12;;;;;;;2.97;2.78;;;6.20;99.90;;;;;;5031867;28;20252;-70
2021/01/20 11:31:38;;;;;;;2.78;2.40;;;6.10;99.90;;;;;;5031184;28;20251;-70
2021/01/20 11:34:04;;;;;;;3.47;2.53;;;6.10;99.90;;;;;;5030750;28;20210;-70
2021/01/20 11:36:30;;;;;;;3.95;2.75;;;5.90;99.90;;;;;;5031727;28;20292;-70
2021/01/20 11:38:57;;;;;;;6.85;2.28;;;5.90;99.90;;;;;;5030539;28;20202;-70
2021/01/20 11:41:23;;;;;;;4.10;2.75;;;5.90;99.90;;;;;;5031634;28;20579;-70
2021/01/20 11:43:51;;;;;;;3.97;2.90;;;5.90;99.90;;;;;;5030976;28;20241;-70
2021/01/20 11:46:20;;;;;;;2.97;2.65;;;5.80;99.90;;;;;;5031534;28;20600;-70
2021/01/20 11:48:46;;;;;;;2.92;2.53;;;5.80;99.90;;;;;;5031203;28;20208;-70
2021/01/20 11:51:13;;;;;;;4.45;2.72;;;5.90;99.90;;;;;;5031502;28;20206;-70
2021/01/20 11:53:39;;;;;;;4.10;2.90;;;5.80;99.90;;;;;;5029944;28;20598;-70
2021/01/20 11:56:06;;;;;;;4.78;2.80;;;5.80;99.90;;;;;;5031285;28;20291;-70
2021/01/20 11:58:32;;;;;;;4.70;3.30;;;5.80;99.90;;;;;;5030830;28;20202;-70
2021/01/20 12:00:59;;;;;;;3.22;2.92;;;5.90;99.90;;;;;;5030916;28;20264;-70
2021/01/20 12:03:25;;;;;;;3.78;2.55;;;5.90;99.90;;;;;;5029484;28;20201;-71
2021/01/20 12:05:52;;;;;;;3.17;2.88;;;5.90;99.90;;;;;;5036076;28;20650;-70
2021/01/20 12:08:19;;;;;;;3.55;2.75;;;6.00;99.90;;;;;;5030566;28;20573;-70
2021/01/20 12:10:45;;;;;;;5.35;3.72;;;6.00;99.90;;;;;;5030451;28;20236;-70
2021/01/20 12:13:12;;;;;;;3.78;3.05;;;6.10;99.90;;;;;;5029181;28;20206;-70
2021/01/20 12:15:38;;;;;;;3.65;3.35;;;6.20;99.90;;;;;;5030234;28;20252;-69
2021/01/20 12:18:06;;;;;;;3.22;2.75;;;6.20;99.90;;;;;;5031082;28;20237;-70
2021/01/20 12:20:33;;;;;;;4.25;2.85;;;6.30;99.90;;;;;;5030711;28;20220;-70
2021/01/20 12:22:59;;;;;;;2.67;2.40;;;6.40;99.90;;;;;;5029972;28;20230;-70
2021/01/20 12:25:27;;;;;;;4.38;2.63;;;6.40;99.90;;;;;;5030734;28;20364;-70
2021/01/20 12:27:53;;;;;;;4.05;3.35;;;6.50;99.90;;;;;;5030095;28;20836;-70
2021/01/20 12:30:20;;;;;;;3.00;2.67;;;6.50;99.90;;;;;;5030253;28;20201;-70
2021/01/20 12:32:46;;;;;;;3.50;3.20;;;6.60;99.90;;;;;;5029846;28;20202;-70
2021/01/20 12:35:13;;;;;;;3.10;2.80;;;6.60;99.90;;;;;;5030231;28;20226;-70
2021/01/20 12:37:40;;;;;;;3.58;3.00;;;6.50;99.90;;;;;;5030176;28;20221;-70
2021/01/20 12:40:07;;;;;;;4.70;3.15;;;6.50;99.90;;;;;;5029514;28;20197;-70
2021/01/20 12:42:33;;;;;;;5.10;3.10;;;6.40;99.90;;;;;;5029910;28;20210;-70
2021/01/20 12:45:00;;;;;;;3.92;3.20;;;6.30;99.90;;;;;;5030728;28;20226;-70
2021/01/20 12:47:26;;;;;;;3.83;3.30;;;6.30;99.90;;;;;;5030482;28;20202;-70
2021/01/20 12:49:52;;;;;;;3.20;2.90;;;6.30;99.90;;;;;;5030023;28;20205;-70
2021/01/20 12:52:19;;;;;;;5.43;3.28;;;6.30;99.90;;;;;;5029271;28;20213;-70
2021/01/20 13:01:09;;;;;;;5.38;4.40;;;6.20;99.90;;;;;;5057305;22;20239;-72
2021/01/20 13:03:35;;;;;;;4.10;3.35;;;6.30;99.90;;;;;;5049509;28;20201;-72
2021/01/20 13:06:01;;;;;;;4.25;3.30;;;6.40;99.90;;;;;;5049868;28;20221;-72
2021/01/20 13:08:30;;;;;;;5.38;3.55;;;6.30;99.90;;;;;;5050243;28;20672;-72
2021/01/20 13:10:56;;;;;;;4.88;3.53;;;6.30;99.90;;;;;;5049447;28;20200;-72
2021/01/20 13:13:22;;;;;;;4.22;3.38;;;6.30;99.90;;;;;;5048779;28;20193;-73
2021/01/20 13:15:50;;;;;;;7.10;3.53;;;6.40;99.90;;;;;;5049212;28;20263;-72
2021/01/20 13:18:17;;;;;;;4.13;3.63;;;6.60;99.90;;;;;;5049832;28;20471;-71
2021/01/20 13:20:43;;;;;;;4.38;3.25;;;6.80;99.90;;;;;;5048895;28;20201;-74